sensor_id;sensor_type;location;lat;lon;timestamp;P1;durP1;ratioP1;P2;durP2;ratioP2
15573;SDS011;7888;46.748;8.102;2022-08-19T00:01:47;1.70;;;1.60;;
15573;SDS011;7888;46.748;8.102;2022-08-19T00:04:17;2.42;;;1.67;;
15573;SDS011;7888;46.748;8.102;2022-08-19T00:06:52;1.67;;;1.52;;
15573;SDS011;7888;46.748;8.102;2022-08-19T00:09:19;1.42;;;1.33;;
15573;SDS011;7888;46.748;8.102;2022-08-19T00:11:47;2.50;;;1.40;;
15573;SDS011;7888;46.748;8.102;2022-08-19T00:14:14;2.45;;;1.70;;
15573;SDS011;7888;46.748;8.102;2022-08-19T00:16:43;1.90;;;1.30;;
15573;SDS011;7888;46.748;8.102;2022-08-19T00:19:12;1.77;;;1.67;;
15573;SDS011;7888;46.748;8.102;2022-08-19T00:21:39;1.50;;;1.40;;
15573;SDS011;7888;46.748;8.102;2022-08-19T00:24:09;1.55;;;1.45;;
15573;SDS011;7888;46.748;8.102;2022-08-19T00:26:38;1.50;;;1.40;;
15573;SDS011;7888;46.748;8.102;2022-08-19T00:29:05;1.55;;;1.45;;
15573;SDS011;7888;46.748;8.102;2022-08-19T00:31:34;2.75;;;1.70;;
15573;SDS011;7888;46.748;8.102;2022-08-19T00:34:01;1.50;;;1.40;;
15573;SDS011;7888;46.748;8.102;2022-08-19T00:36:27;2.03;;;1.52;;
15573;SDS011;7888;46.748;8.102;2022-08-19T00:38:54;1.80;;;1.70;;
15573;SDS011;7888;46.748;8.102;2022-08-19T00:41:20;1.80;;;1.70;;
15573;SDS011;7888;46.748;8.102;2022-08-19T00:46:34;2.25;;;1.60;;
15573;SDS011;7888;46.748;8.102;2022-08-19T00:49:05;2.58;;;1.27;;
15573;SDS011;7888;46.748;8.102;2022-08-19T00:51:41;1.85;;;1.33;;
15573;SDS011;7888;46.748;8.102;2022-08-19T00:54:11;1.30;;;1.20;;
15573;SDS011;7888;46.748;8.102;2022-08-19T00:56:38;2.33;;;1.40;;
15573;SDS011;7888;46.748;8.102;2022-08-19T00:59:05;1.83;;;1.50;;
15573;SDS011;7888;46.748;8.102;2022-08-19T01:01:35;1.85;;;1.48;;
15573;SDS011;7888;46.748;8.102;2022-08-19T01:04:07;1.27;;;1.17;;
15573;SDS011;7888;46.748;8.102;2022-08-19T01:06:33;2.33;;;1.45;;
15573;SDS011;7888;46.748;8.102;2022-08-19T01:09:02;1.48;;;1.38;;
15573;SDS011;7888;46.748;8.102;2022-08-19T01:11:30;1.60;;;1.00;;
15573;SDS011;7888;46.748;8.102;2022-08-19T01:14:04;1.40;;;1.30;;
15573;SDS011;7888;46.748;8.102;2022-08-19T01:16:32;1.90;;;1.67;;
15573;SDS011;7888;46.748;8.102;2022-08-19T01:19:00;1.83;;;1.40;;
15573;SDS011;7888;46.748;8.102;2022-08-19T01:23:59;1.30;;;1.20;;
15573;SDS011;7888;46.748;8.102;2022-08-19T01:26:25;1.35;;;1.25;;
15573;SDS011;7888;46.748;8.102;2022-08-19T01:28:54;2.38;;;1.40;;
15573;SDS011;7888;46.748;8.102;2022-08-19T01:31:24;1.73;;;1.63;;
15573;SDS011;7888;46.748;8.102;2022-08-19T01:33:56;1.30;;;1.20;;
15573;SDS011;7888;46.748;8.102;2022-08-19T01:36:37;2.17;;;1.40;;
15573;SDS011;7888;46.748;8.102;2022-08-19T01:39:09;2.38;;;1.52;;
15573;SDS011;7888;46.748;8.102;2022-08-19T01:41:38;1.85;;;1.75;;
15573;SDS011;7888;46.748;8.102;2022-08-19T01:44:05;2.85;;;1.50;;
15573;SDS011;7888;46.748;8.102;2022-08-19T01:46:33;1.88;;;1.77;;
15573;SDS011;7888;46.748;8.102;2022-08-19T01:48:59;2.00;;;1.80;;
15573;SDS011;7888;46.748;8.102;2022-08-19T01:51:28;1.40;;;1.30;;
15573;SDS011;7888;46.748;8.102;2022-08-19T01:53:55;3.13;;;1.95;;
15573;SDS011;7888;46.748;8.102;2022-08-19T01:56:22;1.50;;;1.40;;
15573;SDS011;7888;46.748;8.102;2022-08-19T01:58:54;1.50;;;1.40;;
15573;SDS011;7888;46.748;8.102;2022-08-19T02:01:26;1.85;;;1.60;;
15573;SDS011;7888;46.748;8.102;2022-08-19T02:03:53;1.60;;;1.50;;
15573;SDS011;7888;46.748;8.102;2022-08-19T02:06:19;1.60;;;1.50;;
15573;SDS011;7888;46.748;8.102;2022-08-19T02:08:45;1.52;;;1.42;;
15573;SDS011;7888;46.748;8.102;2022-08-19T02:11:19;2.20;;;1.80;;
15573;SDS011;7888;46.748;8.102;2022-08-19T02:13:48;2.22;;;1.45;;
15573;SDS011;7888;46.748;8.102;2022-08-19T02:16:15;1.77;;;1.67;;
15573;SDS011;7888;46.748;8.102;2022-08-19T02:18:42;2.13;;;1.92;;
15573;SDS011;7888;46.748;8.102;2022-08-19T02:21:09;2.22;;;2.05;;
15573;SDS011;7888;46.748;8.102;2022-08-19T02:23:35;1.60;;;1.50;;
15573;SDS011;7888;46.748;8.102;2022-08-19T02:26:01;2.08;;;1.50;;
15573;SDS011;7888;46.748;8.102;2022-08-19T02:28:27;1.48;;;1.30;;
15573;SDS011;7888;46.748;8.102;2022-08-19T02:30:53;1.92;;;1.33;;
15573;SDS011;7888;46.748;8.102;2022-08-19T02:33:19;16.77;;;2.80;;
15573;SDS011;7888;46.748;8.102;2022-08-19T02:35:45;2.58;;;1.42;;
15573;SDS011;7888;46.748;8.102;2022-08-19T02:38:12;4.45;;;1.85;;
15573;SDS011;7888;46.748;8.102;2022-08-19T02:40:53;9.85;;;1.77;;
15573;SDS011;7888;46.748;8.102;2022-08-19T02:43:25;3.55;;;1.48;;
15573;SDS011;7888;46.748;8.102;2022-08-19T02:45:54;2.22;;;1.10;;
15573;SDS011;7888;46.748;8.102;2022-08-19T02:48:20;1.55;;;1.45;;
15573;SDS011;7888;46.748;8.102;2022-08-19T02:50:50;1.60;;;1.30;;
15573;SDS011;7888;46.748;8.102;2022-08-19T02:53:20;11.93;;;1.90;;
15573;SDS011;7888;46.748;8.102;2022-08-19T02:55:48;1.20;;;1.10;;
15573;SDS011;7888;46.748;8.102;2022-08-19T02:58:15;1.25;;;1.15;;
15573;SDS011;7888;46.748;8.102;2022-08-19T03:00:47;1.20;;;1.10;;
15573;SDS011;7888;46.748;8.102;2022-08-19T03:03:16;2.33;;;1.20;;
15573;SDS011;7888;46.748;8.102;2022-08-19T03:05:43;1.02;;;0.90;;
15573;SDS011;7888;46.748;8.102;2022-08-19T03:08:10;1.48;;;1.10;;
15573;SDS011;7888;46.748;8.102;2022-08-19T03:10:44;1.07;;;1.07;;
15573;SDS011;7888;46.748;8.102;2022-08-19T03:13:13;1.08;;;1.08;;
15573;SDS011;7888;46.748;8.102;2022-08-19T03:15:42;1.88;;;0.90;;
15573;SDS011;7888;46.748;8.102;2022-08-19T03:18:12;1.42;;;1.23;;
15573;SDS011;7888;46.748;8.102;2022-08-19T03:20:40;1.42;;;1.10;;
15573;SDS011;7888;46.748;8.102;2022-08-19T03:23:11;0.90;;;0.90;;
15573;SDS011;7888;46.748;8.102;2022-08-19T03:25:40;2.08;;;0.80;;
15573;SDS011;7888;46.748;8.102;2022-08-19T03:28:13;1.10;;;1.10;;
15573;SDS011;7888;46.748;8.102;2022-08-19T03:30:41;45.42;;;3.35;;
15573;SDS011;7888;46.748;8.102;2022-08-19T03:33:21;51.70;;;4.43;;
15573;SDS011;7888;46.748;8.102;2022-08-19T03:35:58;63.80;;;4.27;;
15573;SDS011;7888;46.748;8.102;2022-08-19T03:38:25;9.52;;;1.92;;
15573;SDS011;7888;46.748;8.102;2022-08-19T03:40:51;1.50;;;1.40;;
15573;SDS011;7888;46.748;8.102;2022-08-19T03:43:17;1.40;;;1.30;;
15573;SDS011;7888;46.748;8.102;2022-08-19T03:45:43;1.48;;;1.38;;
15573;SDS011;7888;46.748;8.102;2022-08-19T03:48:09;2.13;;;1.40;;
15573;SDS011;7888;46.748;8.102;2022-08-19T03:50:38;1.30;;;1.20;;
15573;SDS011;7888;46.748;8.102;2022-08-19T03:53:05;1.42;;;1.20;;
15573;SDS011;7888;46.748;8.102;2022-08-19T03:55:34;1.20;;;1.10;;
15573;SDS011;7888;46.748;8.102;2022-08-19T03:58:05;6.57;;;1.10;;
15573;SDS011;7888;46.748;8.102;2022-08-19T04:00:31;1.27;;;1.17;;
15573;SDS011;7888;46.748;8.102;2022-08-19T04:02:58;1.13;;;1.00;;
15573;SDS011;7888;46.748;8.102;2022-08-19T04:05:26;1.70;;;1.00;;
15573;SDS011;7888;46.748;8.102;2022-08-19T04:07:53;0.85;;;0.75;;
15573;SDS011;7888;46.748;8.102;2022-08-19T04:10:23;1.25;;;0.82;;
15573;SDS011;7888;46.748;8.102;2022-08-19T04:12:49;0.75;;;0.75;;
15573;SDS011;7888;46.748;8.102;2022-08-19T04:15:15;0.70;;;0.70;;
15573;SDS011;7888;46.748;8.102;2022-08-19T04:17:41;34.78;;;3.22;;
15573;SDS011;7888;46.748;8.102;2022-08-19T04:20:07;6.05;;;1.38;;
15573;SDS011;7888;46.748;8.102;2022-08-19T04:22:33;1.27;;;1.00;;
15573;SDS011;7888;46.748;8.102;2022-08-19T04:24:59;0.88;;;0.82;;
15573;SDS011;7888;46.748;8.102;2022-08-19T04:27:25;1.52;;;0.80;;
15573;SDS011;7888;46.748;8.102;2022-08-19T04:29:51;1.25;;;1.10;;
15573;SDS011;7888;46.748;8.102;2022-08-19T04:32:20;0.90;;;0.75;;
15573;SDS011;7888;46.748;8.102;2022-08-19T04:34:46;0.98;;;0.90;;
15573;SDS011;7888;46.748;8.102;2022-08-19T04:37:11;0.63;;;0.63;;
15573;SDS011;7888;46.748;8.102;2022-08-19T04:39:37;1.45;;;0.65;;
15573;SDS011;7888;46.748;8.102;2022-08-19T04:42:23;0.50;;;0.50;;
15573;SDS011;7888;46.748;8.102;2022-08-19T04:45:08;0.70;;;0.70;;
15573;SDS011;7888;46.748;8.102;2022-08-19T04:47:41;0.80;;;0.80;;
15573;SDS011;7888;46.748;8.102;2022-08-19T04:50:09;0.60;;;0.60;;
15573;SDS011;7888;46.748;8.102;2022-08-19T04:52:36;0.60;;;0.60;;
15573;SDS011;7888;46.748;8.102;2022-08-19T04:55:08;0.70;;;0.70;;
15573;SDS011;7888;46.748;8.102;2022-08-19T04:57:36;0.98;;;0.70;;
15573;SDS011;7888;46.748;8.102;2022-08-19T05:00:05;1.02;;;0.80;;
15573;SDS011;7888;46.748;8.102;2022-08-19T05:02:33;0.88;;;0.88;;
15573;SDS011;7888;46.748;8.102;2022-08-19T05:04:59;1.13;;;0.90;;
15573;SDS011;7888;46.748;8.102;2022-08-19T05:07:26;3.67;;;1.00;;
15573;SDS011;7888;46.748;8.102;2022-08-19T05:09:52;1.08;;;1.00;;
15573;SDS011;7888;46.748;8.102;2022-08-19T05:12:18;0.93;;;0.93;;
15573;SDS011;7888;46.748;8.102;2022-08-19T05:14:44;1.02;;;0.90;;
15573;SDS011;7888;46.748;8.102;2022-08-19T05:17:12;0.90;;;0.90;;
15573;SDS011;7888;46.748;8.102;2022-08-19T05:19:39;1.13;;;1.02;;
15573;SDS011;7888;46.748;8.102;2022-08-19T05:22:23;1.33;;;1.23;;
15573;SDS011;7888;46.748;8.102;2022-08-19T05:25:04;8.07;;;1.30;;
15573;SDS011;7888;46.748;8.102;2022-08-19T05:27:35;100.20;;;7.03;;
15573;SDS011;7888;46.748;8.102;2022-08-19T05:30:01;8.65;;;1.60;;
15573;SDS011;7888;46.748;8.102;2022-08-19T05:32:27;1.55;;;1.17;;
15573;SDS011;7888;46.748;8.102;2022-08-19T05:34:53;0.88;;;0.88;;
15573;SDS011;7888;46.748;8.102;2022-08-19T05:37:19;1.05;;;0.95;;
15573;SDS011;7888;46.748;8.102;2022-08-19T05:39:45;1.52;;;1.15;;
15573;SDS011;7888;46.748;8.102;2022-08-19T05:42:11;1.70;;;1.23;;
15573;SDS011;7888;46.748;8.102;2022-08-19T05:44:39;1.00;;;1.00;;
15573;SDS011;7888;46.748;8.102;2022-08-19T05:47:09;1.98;;;0.88;;
15573;SDS011;7888;46.748;8.102;2022-08-19T05:49:37;1.33;;;1.10;;
15573;SDS011;7888;46.748;8.102;2022-08-19T05:52:04;0.90;;;0.85;;
15573;SDS011;7888;46.748;8.102;2022-08-19T05:54:33;1.65;;;1.30;;
15573;SDS011;7888;46.748;8.102;2022-08-19T05:57:01;0.80;;;0.80;;
15573;SDS011;7888;46.748;8.102;2022-08-19T05:59:27;0.88;;;0.82;;
15573;SDS011;7888;46.748;8.102;2022-08-19T06:01:53;0.82;;;0.80;;
15573;SDS011;7888;46.748;8.102;2022-08-19T06:04:21;0.85;;;0.70;;
15573;SDS011;7888;46.748;8.102;2022-08-19T06:06:48;0.73;;;0.60;;
15573;SDS011;7888;46.748;8.102;2022-08-19T06:09:18;1.45;;;0.80;;
15573;SDS011;7888;46.748;8.102;2022-08-19T06:11:47;1.08;;;0.75;;
15573;SDS011;7888;46.748;8.102;2022-08-19T06:14:21;3.25;;;1.23;;
15573;SDS011;7888;46.748;8.102;2022-08-19T06:16:50;1.02;;;0.75;;
15573;SDS011;7888;46.748;8.102;2022-08-19T06:19:20;0.85;;;0.75;;
15573;SDS011;7888;46.748;8.102;2022-08-19T06:21:49;0.90;;;0.90;;
15573;SDS011;7888;46.748;8.102;2022-08-19T06:24:18;17.98;;;1.88;;
15573;SDS011;7888;46.748;8.102;2022-08-19T06:26:51;0.80;;;0.80;;
15573;SDS011;7888;46.748;8.102;2022-08-19T06:29:21;0.57;;;0.57;;
15573;SDS011;7888;46.748;8.102;2022-08-19T06:31:50;1.00;;;0.60;;
15573;SDS011;7888;46.748;8.102;2022-08-19T06:34:19;0.60;;;0.60;;
15573;SDS011;7888;46.748;8.102;2022-08-19T06:36:47;1.00;;;0.80;;
15573;SDS011;7888;46.748;8.102;2022-08-19T06:39:20;31.67;;;2.70;;
15573;SDS011;7888;46.748;8.102;2022-08-19T06:41:54;17.75;;;3.45;;
15573;SDS011;7888;46.748;8.102;2022-08-19T06:44:22;2.42;;;2.22;;
15573;SDS011;7888;46.748;8.102;2022-08-19T06:46:51;3.38;;;2.95;;
15573;SDS011;7888;46.748;8.102;2022-08-19T06:49:19;2.08;;;1.92;;
15573;SDS011;7888;46.748;8.102;2022-08-19T06:51:45;2.13;;;1.83;;
15573;SDS011;7888;46.748;8.102;2022-08-19T06:54:14;17.17;;;2.90;;
15573;SDS011;7888;46.748;8.102;2022-08-19T06:56:42;3.22;;;2.22;;
15573;SDS011;7888;46.748;8.102;2022-08-19T06:59:12;3.08;;;2.80;;
15573;SDS011;7888;46.748;8.102;2022-08-19T07:01:46;3.05;;;2.75;;
15573;SDS011;7888;46.748;8.102;2022-08-19T07:04:19;2.23;;;2.03;;
15573;SDS011;7888;46.748;8.102;2022-08-19T07:06:56;3.92;;;3.40;;
15573;SDS011;7888;46.748;8.102;2022-08-19T07:09:33;3.42;;;3.08;;
15573;SDS011;7888;46.748;8.102;2022-08-19T07:12:02;2.83;;;2.63;;
15573;SDS011;7888;46.748;8.102;2022-08-19T07:14:31;3.33;;;3.03;;
15573;SDS011;7888;46.748;8.102;2022-08-19T07:17:01;3.35;;;3.05;;
15573;SDS011;7888;46.748;8.102;2022-08-19T07:19:29;5.35;;;3.83;;
15573;SDS011;7888;46.748;8.102;2022-08-19T07:21:56;3.80;;;3.42;;
15573;SDS011;7888;46.748;8.102;2022-08-19T07:24:24;3.20;;;3.00;;
15573;SDS011;7888;46.748;8.102;2022-08-19T07:26:53;3.10;;;2.80;;
15573;SDS011;7888;46.748;8.102;2022-08-19T07:29:25;3.17;;;2.97;;
15573;SDS011;7888;46.748;8.102;2022-08-19T07:31:53;2.80;;;2.60;;
15573;SDS011;7888;46.748;8.102;2022-08-19T07:34:21;3.00;;;2.70;;
15573;SDS011;7888;46.748;8.102;2022-08-19T07:36:48;3.03;;;2.63;;
15573;SDS011;7888;46.748;8.102;2022-08-19T07:39:19;3.58;;;3.28;;
15573;SDS011;7888;46.748;8.102;2022-08-19T07:41:55;3.67;;;3.27;;
15573;SDS011;7888;46.748;8.102;2022-08-19T07:44:23;3.73;;;3.43;;
15573;SDS011;7888;46.748;8.102;2022-08-19T07:46:50;3.67;;;3.25;;
15573;SDS011;7888;46.748;8.102;2022-08-19T07:49:20;3.33;;;3.03;;
15573;SDS011;7888;46.748;8.102;2022-08-19T07:51:52;4.03;;;3.63;;
15573;SDS011;7888;46.748;8.102;2022-08-19T07:54:28;3.25;;;2.95;;
15573;SDS011;7888;46.748;8.102;2022-08-19T07:56:59;6.30;;;3.20;;
15573;SDS011;7888;46.748;8.102;2022-08-19T07:59:25;3.58;;;2.83;;
15573;SDS011;7888;46.748;8.102;2022-08-19T08:01:53;8.35;;;3.65;;
15573;SDS011;7888;46.748;8.102;2022-08-19T08:04:20;21.95;;;4.90;;
15573;SDS011;7888;46.748;8.102;2022-08-19T08:07:05;25.40;;;5.00;;
15573;SDS011;7888;46.748;8.102;2022-08-19T08:09:52;25.93;;;5.20;;
15573;SDS011;7888;46.748;8.102;2022-08-19T08:12:19;29.37;;;5.27;;
15573;SDS011;7888;46.748;8.102;2022-08-19T08:14:54;7.50;;;3.83;;
15573;SDS011;7888;46.748;8.102;2022-08-19T08:17:27;5.57;;;3.90;;
15573;SDS011;7888;46.748;8.102;2022-08-19T08:19:54;5.55;;;4.15;;
15573;SDS011;7888;46.748;8.102;2022-08-19T08:22:21;3.53;;;3.23;;
15573;SDS011;7888;46.748;8.102;2022-08-19T08:25:09;3.93;;;3.20;;
15573;SDS011;7888;46.748;8.102;2022-08-19T08:27:43;3.63;;;3.30;;
15573;SDS011;7888;46.748;8.102;2022-08-19T08:30:12;4.60;;;3.40;;
15573;SDS011;7888;46.748;8.102;2022-08-19T08:32:41;3.57;;;3.27;;
15573;SDS011;7888;46.748;8.102;2022-08-19T08:35:09;3.33;;;2.90;;
15573;SDS011;7888;46.748;8.102;2022-08-19T08:37:38;3.30;;;3.00;;
15573;SDS011;7888;46.748;8.102;2022-08-19T08:40:06;4.40;;;3.10;;
15573;SDS011;7888;46.748;8.102;2022-08-19T08:42:47;3.50;;;3.20;;
15573;SDS011;7888;46.748;8.102;2022-08-19T08:45:45;3.80;;;3.50;;
15573;SDS011;7888;46.748;8.102;2022-08-19T08:51:14;4.30;;;3.80;;
15573;SDS011;7888;46.748;8.102;2022-08-19T08:53:47;7.87;;;4.23;;
15573;SDS011;7888;46.748;8.102;2022-08-19T08:56:18;6.03;;;3.83;;
15573;SDS011;7888;46.748;8.102;2022-08-19T08:58:56;6.27;;;4.00;;
15573;SDS011;7888;46.748;8.102;2022-08-19T09:01:33;4.00;;;3.63;;
15573;SDS011;7888;46.748;8.102;2022-08-19T09:04:02;4.80;;;4.30;;
15573;SDS011;7888;46.748;8.102;2022-08-19T09:06:35;5.40;;;4.10;;
15573;SDS011;7888;46.748;8.102;2022-08-19T09:12:06;3.97;;;3.67;;
15573;SDS011;7888;46.748;8.102;2022-08-19T09:14:49;3.83;;;3.53;;
15573;SDS011;7888;46.748;8.102;2022-08-19T09:17:28;4.03;;;3.73;;
15573;SDS011;7888;46.748;8.102;2022-08-19T09:20:00;3.90;;;3.60;;
15573;SDS011;7888;46.748;8.102;2022-08-19T09:22:40;4.40;;;4.00;;
15573;SDS011;7888;46.748;8.102;2022-08-19T09:25:10;4.13;;;3.83;;
15573;SDS011;7888;46.748;8.102;2022-08-19T09:27:40;3.77;;;3.47;;
15573;SDS011;7888;46.748;8.102;2022-08-19T09:30:07;4.73;;;4.33;;
15573;SDS011;7888;46.748;8.102;2022-08-19T09:32:40;4.77;;;4.30;;
15573;SDS011;7888;46.748;8.102;2022-08-19T09:35:07;4.33;;;3.90;;
15573;SDS011;7888;46.748;8.102;2022-08-19T09:37:34;4.60;;;4.20;;
15573;SDS011;7888;46.748;8.102;2022-08-19T09:40:00;4.70;;;4.30;;
15573;SDS011;7888;46.748;8.102;2022-08-19T09:42:26;4.43;;;4.10;;
15573;SDS011;7888;46.748;8.102;2022-08-19T09:44:52;4.50;;;4.10;;
15573;SDS011;7888;46.748;8.102;2022-08-19T09:47:18;4.60;;;4.20;;
15573;SDS011;7888;46.748;8.102;2022-08-19T09:49:43;4.68;;;4.28;;
15573;SDS011;7888;46.748;8.102;2022-08-19T09:52:10;4.47;;;4.17;;
15573;SDS011;7888;46.748;8.102;2022-08-19T09:54:37;4.78;;;4.38;;
15573;SDS011;7888;46.748;8.102;2022-08-19T09:57:04;4.90;;;4.50;;
15573;SDS011;7888;46.748;8.102;2022-08-19T09:59:31;4.63;;;4.23;;
15573;SDS011;7888;46.748;8.102;2022-08-19T10:01:57;3.93;;;3.63;;
15573;SDS011;7888;46.748;8.102;2022-08-19T10:04:23;4.00;;;3.60;;
15573;SDS011;7888;46.748;8.102;2022-08-19T10:07:09;4.32;;;4.03;;
15573;SDS011;7888;46.748;8.102;2022-08-19T10:09:35;4.10;;;3.80;;
15573;SDS011;7888;46.748;8.102;2022-08-19T10:12:01;4.70;;;4.30;;
15573;SDS011;7888;46.748;8.102;2022-08-19T10:14:30;4.27;;;3.60;;
15573;SDS011;7888;46.748;8.102;2022-08-19T10:16:56;4.00;;;3.70;;
15573;SDS011;7888;46.748;8.102;2022-08-19T10:19:22;4.77;;;4.37;;
15573;SDS011;7888;46.748;8.102;2022-08-19T10:21:48;3.83;;;3.53;;
15573;SDS011;7888;46.748;8.102;2022-08-19T10:24:14;4.60;;;4.00;;
15573;SDS011;7888;46.748;8.102;2022-08-19T10:26:40;3.93;;;3.60;;
15573;SDS011;7888;46.748;8.102;2022-08-19T10:29:09;3.67;;;3.38;;
15573;SDS011;7888;46.748;8.102;2022-08-19T10:31:36;4.13;;;3.83;;
15573;SDS011;7888;46.748;8.102;2022-08-19T10:34:02;3.83;;;3.53;;
15573;SDS011;7888;46.748;8.102;2022-08-19T10:36:31;4.33;;;3.93;;
15573;SDS011;7888;46.748;8.102;2022-08-19T10:39:03;4.37;;;4.03;;
15573;SDS011;7888;46.748;8.102;2022-08-19T10:41:33;4.00;;;3.70;;
15573;SDS011;7888;46.748;8.102;2022-08-19T10:44:11;4.43;;;3.77;;
15573;SDS011;7888;46.748;8.102;2022-08-19T10:46:41;3.87;;;3.57;;
15573;SDS011;7888;46.748;8.102;2022-08-19T10:49:10;4.05;;;3.75;;
15573;SDS011;7888;46.748;8.102;2022-08-19T10:51:37;4.10;;;3.80;;
15573;SDS011;7888;46.748;8.102;2022-08-19T10:54:23;3.87;;;3.57;;
15573;SDS011;7888;46.748;8.102;2022-08-19T10:57:10;4.13;;;3.73;;
15573;SDS011;7888;46.748;8.102;2022-08-19T10:59:36;4.03;;;3.63;;
15573;SDS011;7888;46.748;8.102;2022-08-19T11:02:04;3.30;;;3.00;;
15573;SDS011;7888;46.748;8.102;2022-08-19T11:04:35;3.80;;;3.50;;
15573;SDS011;7888;46.748;8.102;2022-08-19T11:07:03;3.90;;;3.60;;
15573;SDS011;7888;46.748;8.102;2022-08-19T11:09:30;4.00;;;3.70;;
15573;SDS011;7888;46.748;8.102;2022-08-19T11:11:56;4.20;;;3.90;;
15573;SDS011;7888;46.748;8.102;2022-08-19T11:14:22;4.03;;;3.63;;
15573;SDS011;7888;46.748;8.102;2022-08-19T11:16:50;4.20;;;3.83;;
15573;SDS011;7888;46.748;8.102;2022-08-19T11:19:20;3.80;;;3.50;;
15573;SDS011;7888;46.748;8.102;2022-08-19T11:21:48;3.63;;;3.33;;
15573;SDS011;7888;46.748;8.102;2022-08-19T11:24:17;4.20;;;3.90;;
15573;SDS011;7888;46.748;8.102;2022-08-19T11:26:48;3.87;;;3.57;;
15573;SDS011;7888;46.748;8.102;2022-08-19T11:29:17;4.03;;;3.73;;
15573;SDS011;7888;46.748;8.102;2022-08-19T11:31:46;4.40;;;4.10;;
15573;SDS011;7888;46.748;8.102;2022-08-19T11:34:15;3.70;;;3.40;;
15573;SDS011;7888;46.748;8.102;2022-08-19T11:36:45;3.83;;;3.53;;
15573;SDS011;7888;46.748;8.102;2022-08-19T11:39:13;4.07;;;3.67;;
15573;SDS011;7888;46.748;8.102;2022-08-19T11:41:42;4.00;;;3.60;;
15573;SDS011;7888;46.748;8.102;2022-08-19T11:44:08;3.90;;;3.60;;
15573;SDS011;7888;46.748;8.102;2022-08-19T11:46:35;3.90;;;3.60;;
15573;SDS011;7888;46.748;8.102;2022-08-19T11:49:03;3.70;;;3.40;;
15573;SDS011;7888;46.748;8.102;2022-08-19T11:51:32;4.40;;;4.00;;
15573;SDS011;7888;46.748;8.102;2022-08-19T11:53:58;3.83;;;3.53;;
15573;SDS011;7888;46.748;8.102;2022-08-19T11:56:26;3.60;;;3.30;;
15573;SDS011;7888;46.748;8.102;2022-08-19T11:58:53;3.63;;;3.37;;
15573;SDS011;7888;46.748;8.102;2022-08-19T12:01:20;3.57;;;3.27;;
15573;SDS011;7888;46.748;8.102;2022-08-19T12:03:50;3.73;;;3.43;;
15573;SDS011;7888;46.748;8.102;2022-08-19T12:06:18;3.67;;;3.38;;
15573;SDS011;7888;46.748;8.102;2022-08-19T12:08:53;3.63;;;3.33;;
15573;SDS011;7888;46.748;8.102;2022-08-19T12:11:26;3.37;;;2.93;;
15573;SDS011;7888;46.748;8.102;2022-08-19T12:13:52;3.00;;;2.80;;
15573;SDS011;7888;46.748;8.102;2022-08-19T12:16:23;2.90;;;2.70;;
15573;SDS011;7888;46.748;8.102;2022-08-19T12:18:53;3.47;;;3.17;;
15573;SDS011;7888;46.748;8.102;2022-08-19T12:21:22;3.10;;;2.90;;
15573;SDS011;7888;46.748;8.102;2022-08-19T12:23:55;3.43;;;3.13;;
15573;SDS011;7888;46.748;8.102;2022-08-19T12:26:24;3.10;;;2.80;;
15573;SDS011;7888;46.748;8.102;2022-08-19T12:28:51;3.30;;;3.00;;
15573;SDS011;7888;46.748;8.102;2022-08-19T12:31:18;3.05;;;2.85;;
15573;SDS011;7888;46.748;8.102;2022-08-19T12:33:45;3.13;;;2.92;;
15573;SDS011;7888;46.748;8.102;2022-08-19T12:36:12;3.42;;;3.13;;
15573;SDS011;7888;46.748;8.102;2022-08-19T12:38:40;3.65;;;3.15;;
15573;SDS011;7888;46.748;8.102;2022-08-19T12:41:10;3.87;;;3.40;;
15573;SDS011;7888;46.748;8.102;2022-08-19T12:43:40;3.33;;;3.03;;
15573;SDS011;7888;46.748;8.102;2022-08-19T12:46:07;3.37;;;3.10;;
15573;SDS011;7888;46.748;8.102;2022-08-19T12:48:34;3.08;;;2.78;;
15573;SDS011;7888;46.748;8.102;2022-08-19T12:51:00;3.30;;;2.93;;
15573;SDS011;7888;46.748;8.102;2022-08-19T12:53:34;3.37;;;3.07;;
15573;SDS011;7888;46.748;8.102;2022-08-19T12:56:00;9.32;;;3.53;;
15573;SDS011;7888;46.748;8.102;2022-08-19T12:58:27;3.20;;;3.00;;
15573;SDS011;7888;46.748;8.102;2022-08-19T13:00:54;3.22;;;3.03;;
15573;SDS011;7888;46.748;8.102;2022-08-19T13:03:20;3.40;;;3.10;;
15573;SDS011;7888;46.748;8.102;2022-08-19T13:05:54;3.55;;;3.35;;
15573;SDS011;7888;46.748;8.102;2022-08-19T13:08:20;3.53;;;3.23;;
15573;SDS011;7888;46.748;8.102;2022-08-19T13:10:46;3.77;;;3.30;;
15573;SDS011;7888;46.748;8.102;2022-08-19T13:13:12;4.97;;;3.43;;
15573;SDS011;7888;46.748;8.102;2022-08-19T13:15:39;3.30;;;3.00;;
15573;SDS011;7888;46.748;8.102;2022-08-19T13:18:08;3.30;;;3.03;;
15573;SDS011;7888;46.748;8.102;2022-08-19T13:20:35;2.53;;;2.33;;
15573;SDS011;7888;46.748;8.102;2022-08-19T13:23:03;2.53;;;2.33;;
15573;SDS011;7888;46.748;8.102;2022-08-19T13:25:29;2.23;;;2.07;;
15573;SDS011;7888;46.748;8.102;2022-08-19T13:27:55;1.93;;;1.83;;
15573;SDS011;7888;46.748;8.102;2022-08-19T13:30:21;2.20;;;2.00;;
15573;SDS011;7888;46.748;8.102;2022-08-19T13:33:11;2.13;;;2.00;;
15573;SDS011;7888;46.748;8.102;2022-08-19T13:35:47;2.90;;;2.10;;
15573;SDS011;7888;46.748;8.102;2022-08-19T13:38:21;1.90;;;1.80;;
15573;SDS011;7888;46.748;8.102;2022-08-19T13:40:49;2.20;;;2.10;;
15573;SDS011;7888;46.748;8.102;2022-08-19T13:43:17;2.40;;;1.77;;
15573;SDS011;7888;46.748;8.102;2022-08-19T13:45:47;2.20;;;2.10;;
15573;SDS011;7888;46.748;8.102;2022-08-19T13:48:13;2.90;;;2.10;;
15573;SDS011;7888;46.748;8.102;2022-08-19T13:50:43;1.70;;;1.60;;
15573;SDS011;7888;46.748;8.102;2022-08-19T13:53:12;1.77;;;1.67;;
15573;SDS011;7888;46.748;8.102;2022-08-19T13:55:38;1.60;;;1.50;;
15573;SDS011;7888;46.748;8.102;2022-08-19T13:58:09;1.40;;;1.30;;
15573;SDS011;7888;46.748;8.102;2022-08-19T14:00:38;1.92;;;1.70;;
15573;SDS011;7888;46.748;8.102;2022-08-19T14:03:07;2.13;;;2.00;;
15573;SDS011;7888;46.748;8.102;2022-08-19T14:05:33;2.27;;;2.07;;
15573;SDS011;7888;46.748;8.102;2022-08-19T14:08:01;2.53;;;2.33;;
15573;SDS011;7888;46.748;8.102;2022-08-19T14:10:28;2.70;;;2.50;;
15573;SDS011;7888;46.748;8.102;2022-08-19T14:12:56;2.70;;;2.50;;
15573;SDS011;7888;46.748;8.102;2022-08-19T14:15:25;2.50;;;2.30;;
15573;SDS011;7888;46.748;8.102;2022-08-19T14:17:53;2.60;;;2.33;;
15573;SDS011;7888;46.748;8.102;2022-08-19T14:20:19;2.37;;;2.23;;
15573;SDS011;7888;46.748;8.102;2022-08-19T14:22:46;2.10;;;2.00;;
15573;SDS011;7888;46.748;8.102;2022-08-19T14:25:17;2.30;;;2.10;;
15573;SDS011;7888;46.748;8.102;2022-08-19T14:27:48;2.50;;;2.28;;
15573;SDS011;7888;46.748;8.102;2022-08-19T14:30:16;1.83;;;1.73;;
15573;SDS011;7888;46.748;8.102;2022-08-19T14:32:55;2.37;;;1.40;;
15573;SDS011;7888;46.748;8.102;2022-08-19T14:35:23;2.70;;;1.73;;
15573;SDS011;7888;46.748;8.102;2022-08-19T14:37:51;1.40;;;1.30;;
15573;SDS011;7888;46.748;8.102;2022-08-19T14:40:23;2.10;;;1.90;;
15573;SDS011;7888;46.748;8.102;2022-08-19T14:42:52;1.40;;;1.30;;
15573;SDS011;7888;46.748;8.102;2022-08-19T14:45:24;1.53;;;1.43;;
15573;SDS011;7888;46.748;8.102;2022-08-19T14:47:52;1.70;;;1.60;;
15573;SDS011;7888;46.748;8.102;2022-08-19T14:50:18;1.37;;;1.27;;
15573;SDS011;7888;46.748;8.102;2022-08-19T14:52:46;1.50;;;1.40;;
15573;SDS011;7888;46.748;8.102;2022-08-19T14:55:13;1.40;;;1.30;;
15573;SDS011;7888;46.748;8.102;2022-08-19T14:57:41;1.30;;;1.20;;
15573;SDS011;7888;46.748;8.102;2022-08-19T15:00:08;1.40;;;1.30;;
15573;SDS011;7888;46.748;8.102;2022-08-19T15:02:39;1.50;;;1.07;;
15573;SDS011;7888;46.748;8.102;2022-08-19T15:05:05;1.40;;;1.30;;
15573;SDS011;7888;46.748;8.102;2022-08-19T15:07:32;2.67;;;1.47;;
15573;SDS011;7888;46.748;8.102;2022-08-19T15:09:58;1.50;;;1.40;;
15573;SDS011;7888;46.748;8.102;2022-08-19T15:12:24;1.77;;;1.40;;
15573;SDS011;7888;46.748;8.102;2022-08-19T15:14:50;1.27;;;1.20;;
15573;SDS011;7888;46.748;8.102;2022-08-19T15:17:16;1.13;;;1.03;;
15573;SDS011;7888;46.748;8.102;2022-08-19T15:19:44;1.20;;;1.10;;
15573;SDS011;7888;46.748;8.102;2022-08-19T15:22:10;1.47;;;1.37;;
15573;SDS011;7888;46.748;8.102;2022-08-19T15:24:37;1.20;;;1.20;;